Terminal Aerodrome Forecast
Issued by NWS

Current Version | Previous Version | Graphics & Text | Print | Product List | Glossary On
Versions: 1 2 3 4 5 6 7 8 9 10 11 12 13 14 15
988
FTUS41 KPBZ 222337
TAFMGW
TAF
KMGW 222337Z 2300/2324 VRB04KT P6SM SCT070
     FM231400 16004KT P6SM SKC=

USA.gov is the U.S. government's official web portal to all federal, state and local government web resources and services.